createdAt,value
2019-06-07T00:00:36.784Z,1.30
2019-06-07T00:02:45.631Z,1.30
2019-06-07T00:05:18.644Z,1.30
2019-06-07T00:07:46.829Z,1.43
2019-06-07T00:10:31.335Z,1.43
2019-06-07T00:12:45.941Z,1.40
2019-06-07T00:15:19.992Z,1.30
2019-06-07T00:17:45.027Z,1.33
2019-06-07T00:20:17.003Z,1.40
2019-06-07T00:22:43.562Z,1.10
2019-06-07T00:25:15.119Z,1.37
2019-06-07T00:27:42.645Z,1.50
2019-06-07T00:32:41.178Z,1.40
2019-06-07T00:35:11.881Z,1.53
2019-06-07T00:37:41.160Z,1.30
2019-06-07T00:40:16.202Z,1.20
2019-06-07T00:42:40.305Z,1.50
2019-06-07T00:45:11.179Z,1.70
2019-06-07T00:47:40.935Z,1.37
2019-06-07T00:50:10.815Z,1.10
2019-06-07T00:55:14.270Z,1.20
2019-06-07T00:57:43.231Z,1.20
2019-06-07T01:00:12.324Z,1.30
2019-06-07T01:02:40.937Z,1.40
2019-06-07T01:05:10.065Z,1.50
2019-06-07T01:07:38.525Z,1.20
2019-06-07T01:10:10.135Z,1.50
2019-06-07T01:12:38.717Z,1.43
2019-06-07T01:15:09.691Z,1.40
2019-06-07T01:17:50.140Z,1.30
2019-06-07T01:20:08.645Z,1.40
2019-06-07T01:22:37.664Z,1.30
2019-06-07T01:25:07.036Z,1.30
2019-06-07T01:27:36.038Z,1.17
2019-06-07T01:30:07.985Z,1.17
2019-06-07T01:32:38.037Z,1.47
2019-06-07T01:35:08.947Z,1.30
2019-06-07T01:37:37.380Z,1.50
2019-06-07T01:40:06.795Z,1.33
2019-06-07T01:42:36.624Z,1.40
2019-06-07T01:45:09.155Z,1.40
2019-06-07T01:47:37.543Z,0.90
2019-06-07T01:50:07.407Z,1.40
2019-06-07T01:52:37.533Z,1.40
2019-06-07T01:55:06.265Z,1.23
2019-06-07T01:57:47.409Z,1.33
2019-06-07T02:00:07.584Z,1.50
2019-06-07T02:02:37.604Z,1.40
2019-06-07T02:05:06.904Z,1.27
2019-06-07T02:07:36.083Z,1.33
2019-06-07T02:10:05.701Z,1.40
2019-06-07T02:12:42.816Z,1.40
2019-06-07T02:15:08.389Z,1.30
2019-06-07T02:17:37.188Z,1.40
2019-06-07T02:20:06.284Z,1.20
2019-06-07T02:22:35.276Z,1.30
2019-06-07T02:25:35.261Z,1.33
2019-06-07T02:27:36.725Z,1.47
2019-06-07T02:30:37.117Z,1.20
2019-06-07T02:32:38.842Z,1.40
2019-06-07T02:35:08.627Z,1.40
2019-06-07T02:37:37.743Z,1.43
2019-06-07T02:40:09.564Z,1.30
2019-06-07T02:42:42.210Z,1.10
2019-06-07T02:45:11.208Z,1.17
2019-06-07T02:47:41.777Z,1.10
2019-06-07T02:50:12.871Z,1.40
2019-06-07T02:52:42.531Z,1.10
2019-06-07T02:55:11.331Z,1.30
2019-06-07T02:57:41.602Z,1.20
2019-06-07T03:00:40.690Z,1.10
2019-06-07T03:02:43.693Z,1.13
2019-06-07T03:05:12.129Z,1.10
2019-06-07T03:07:45.096Z,1.27
2019-06-07T03:10:11.893Z,1.20
2019-06-07T03:12:40.638Z,1.33
2019-06-07T03:15:09.040Z,1.30
2019-06-07T03:17:41.852Z,0.93
2019-06-07T03:20:14.981Z,1.27
2019-06-07T03:22:43.382Z,1.10
2019-06-07T03:25:15.401Z,1.10
2019-06-07T03:27:49.575Z,1.20
2019-06-07T03:32:47.759Z,1.30
2019-06-07T03:35:14.305Z,1.40
2019-06-07T03:37:43.573Z,1.10
2019-06-07T03:40:12.005Z,1.10
2019-06-07T03:42:42.088Z,1.10
2019-06-07T03:45:10.521Z,0.90
2019-06-07T03:47:41.946Z,1.30
2019-06-07T03:50:10.676Z,1.40
2019-06-07T03:52:41.288Z,1.03
2019-06-07T03:55:13.131Z,1.33
2019-06-07T03:58:30.959Z,1.43
2019-06-07T04:00:12.665Z,1.27
2019-06-07T04:02:42.629Z,1.30
2019-06-07T04:05:11.028Z,1.40
2019-06-07T04:07:44.120Z,1.20
2019-06-07T04:10:09.885Z,1.33
2019-06-07T04:12:43.770Z,1.40
2019-06-07T04:15:15.140Z,1.40
2019-06-07T04:18:00.811Z,1.43
2019-06-07T04:20:13.654Z,1.57
2019-06-07T04:22:42.741Z,1.30
2019-06-07T04:25:11.976Z,1.40
2019-06-07T04:27:42.015Z,1.30
2019-06-07T04:30:12.501Z,1.30
2019-06-07T04:32:45.156Z,1.53
2019-06-07T04:35:14.117Z,1.40
2019-06-07T04:37:44.176Z,1.30
2019-06-07T04:40:13.268Z,1.50
2019-06-07T04:42:45.250Z,1.20
2019-06-07T04:45:33.520Z,1.20
2019-06-07T04:47:48.496Z,1.40
2019-06-07T04:50:17.484Z,1.37
2019-06-07T04:52:45.989Z,1.30
2019-06-07T04:55:14.384Z,1.40
2019-06-07T04:57:43.409Z,1.57
2019-06-07T05:00:46.151Z,1.20
2019-06-07T05:02:43.461Z,1.40
2019-06-07T05:05:12.038Z,1.23
2019-06-07T05:07:45.928Z,1.53
2019-06-07T05:10:10.578Z,1.40
2019-06-07T05:12:44.283Z,1.30
2019-06-07T05:15:12.314Z,1.03
2019-06-07T05:17:45.160Z,1.40
2019-06-07T05:20:16.028Z,1.60
2019-06-07T05:22:45.436Z,1.43
2019-06-07T05:25:14.456Z,1.20
2019-06-07T05:27:46.709Z,1.60
2019-06-07T05:30:51.071Z,1.40
2019-06-07T05:32:49.309Z,1.47
2019-06-07T05:35:18.357Z,1.30
2019-06-07T05:37:46.783Z,1.37
2019-06-07T05:40:18.520Z,1.33
2019-06-07T05:42:46.959Z,1.27
2019-06-07T05:45:18.653Z,1.10
2019-06-07T05:47:51.067Z,1.37
2019-06-07T05:50:38.470Z,1.30
2019-06-07T05:52:47.875Z,1.40
2019-06-07T05:55:16.293Z,1.47
2019-06-07T05:57:49.030Z,1.30
2019-06-07T06:00:14.849Z,1.57
2019-06-07T06:03:03.313Z,1.20
2019-06-07T06:05:32.578Z,1.50
2019-06-07T06:07:50.458Z,1.20
2019-06-07T06:10:15.736Z,1.57
2019-06-07T06:12:51.550Z,1.27
2019-06-07T06:15:15.289Z,1.30
2019-06-07T06:17:47.998Z,1.40
2019-06-07T06:20:13.943Z,1.50
2019-06-07T06:22:48.120Z,1.50
2019-06-07T06:25:31.718Z,1.27
2019-06-07T06:30:16.052Z,1.47
2019-06-07T06:32:53.079Z,1.50
2019-06-07T06:35:16.051Z,1.50
2019-06-07T06:37:50.074Z,1.60
2019-06-07T06:40:15.665Z,1.30
2019-06-07T06:42:45.523Z,1.50
2019-06-07T06:45:15.228Z,1.30
2019-06-07T06:47:47.203Z,1.40
2019-06-07T06:50:13.745Z,1.17
2019-06-07T06:52:45.422Z,1.20
2019-06-07T06:55:16.861Z,1.60
2019-06-07T06:57:45.875Z,1.30
2019-06-07T07:00:15.260Z,1.40
2019-06-07T07:03:32.514Z,1.53
2019-06-07T07:05:15.414Z,1.47
2019-06-07T07:07:45.428Z,1.50
2019-06-07T07:10:19.612Z,1.30
2019-06-07T07:12:51.231Z,1.70
2019-06-07T07:15:19.749Z,1.67
2019-06-07T07:18:00.678Z,1.50
2019-06-07T07:20:19.933Z,1.60
2019-06-07T07:22:53.063Z,1.30
2019-06-07T07:25:18.416Z,1.40
2019-06-07T07:27:47.782Z,1.40
2019-06-07T07:30:37.339Z,1.80
2019-06-07T07:32:52.911Z,1.80
2019-06-07T07:35:21.504Z,1.70
2019-06-07T07:37:58.808Z,1.80
2019-06-07T07:42:56.719Z,2.20
2019-06-07T07:45:25.254Z,1.43
2019-06-07T07:48:08.730Z,1.57
2019-06-07T07:50:33.008Z,1.60
2019-06-07T07:53:03.894Z,2.00
2019-06-07T07:55:33.925Z,1.67
2019-06-07T07:58:02.439Z,1.67
2019-06-07T08:00:52.523Z,1.77
2019-06-07T08:03:04.518Z,1.73
2019-06-07T08:05:42.333Z,1.60
2019-06-07T08:08:07.883Z,1.50
2019-06-07T08:10:37.137Z,1.50
2019-06-07T08:13:23.270Z,1.43
2019-06-07T08:15:38.123Z,1.70
2019-06-07T08:18:10.095Z,1.60
2019-06-07T08:20:40.139Z,1.53
2019-06-07T08:23:08.577Z,1.47
2019-06-07T08:25:37.007Z,1.50
2019-06-07T08:28:05.479Z,1.30
2019-06-07T08:30:56.889Z,1.30
2019-06-07T08:33:24.874Z,1.50
2019-06-07T08:40:34.248Z,1.43
2019-06-07T08:43:18.485Z,1.30
2019-06-07T08:45:33.037Z,1.40
2019-06-07T08:48:07.471Z,1.20
2019-06-07T08:50:31.594Z,1.60
2019-06-07T08:53:11.254Z,1.40
2019-06-07T08:55:30.127Z,1.40
2019-06-07T08:58:04.596Z,1.83
2019-06-07T09:00:45.493Z,1.70
2019-06-07T09:03:05.136Z,1.60
2019-06-07T09:05:29.146Z,1.50
2019-06-07T09:08:21.219Z,1.20
2019-06-07T09:10:28.205Z,1.50
2019-06-07T09:13:00.346Z,1.70
2019-06-07T09:15:26.665Z,1.60
2019-06-07T09:18:34.715Z,1.50
2019-06-07T09:20:36.952Z,1.57
2019-06-07T09:23:06.172Z,1.30
2019-06-07T09:25:28.723Z,1.60
2019-06-07T09:27:59.192Z,1.60
2019-06-07T09:30:44.262Z,1.80
2019-06-07T09:33:12.787Z,1.50
2019-06-07T09:35:41.219Z,1.43
2019-06-07T09:38:23.182Z,1.70
2019-06-07T09:40:39.762Z,1.80
2019-06-07T09:43:54.244Z,1.40
2019-06-07T09:45:38.285Z,1.40
2019-06-07T09:48:13.584Z,1.70
2019-06-07T09:50:36.829Z,1.60
2019-06-07T09:53:19.012Z,1.73
2019-06-07T09:55:35.721Z,1.70
2019-06-07T09:58:47.782Z,1.90
2019-06-07T10:00:40.718Z,1.60
2019-06-07T10:03:16.805Z,1.77
2019-06-07T10:05:34.656Z,1.57
2019-06-07T10:08:16.152Z,2.17
2019-06-07T10:13:01.780Z,1.87
2019-06-07T10:15:30.213Z,1.83
2019-06-07T10:17:58.673Z,1.70
2019-06-07T10:20:27.106Z,1.90
2019-06-07T10:22:55.562Z,1.90
2019-06-07T10:25:23.983Z,1.60
2019-06-07T10:27:53.262Z,1.87
2019-06-07T10:30:22.097Z,2.17
2019-06-07T10:32:52.187Z,1.97
2019-06-07T10:35:20.776Z,2.20
2019-06-07T10:37:49.209Z,2.27
2019-06-07T10:40:17.661Z,2.03
2019-06-07T10:42:46.079Z,2.00
2019-06-07T10:45:14.809Z,2.10
2019-06-07T10:47:43.254Z,2.07
2019-06-07T10:50:12.257Z,2.10
2019-06-07T10:52:40.754Z,2.30
2019-06-07T10:55:09.205Z,2.37
2019-06-07T10:57:37.651Z,1.97
2019-06-07T11:00:09.491Z,2.27
2019-06-07T11:02:38.200Z,2.00
2019-06-07T11:05:08.134Z,1.90
2019-06-07T11:07:36.704Z,2.17
2019-06-07T11:10:11.676Z,2.07
2019-06-07T11:12:37.144Z,1.97
2019-06-07T11:15:08.946Z,1.90
2019-06-07T11:17:37.369Z,2.10
2019-06-07T11:20:10.155Z,2.10
2019-06-07T11:22:38.847Z,1.90
2019-06-07T11:25:09.098Z,1.97
2019-06-07T11:27:37.348Z,1.93
2019-06-07T11:30:08.715Z,1.90
2019-06-07T11:32:37.205Z,1.97
2019-06-07T11:35:08.447Z,1.80
2019-06-07T11:37:37.017Z,2.07
2019-06-07T11:40:27.730Z,1.90
2019-06-07T11:42:38.404Z,1.93
2019-06-07T11:45:07.922Z,2.00
2019-06-07T11:47:37.405Z,1.90
2019-06-07T11:50:07.495Z,2.07
2019-06-07T11:52:39.260Z,2.10
2019-06-07T11:55:09.050Z,1.97
2019-06-07T11:57:37.812Z,2.17
2019-06-07T12:00:13.933Z,2.33
2019-06-07T12:02:42.679Z,2.37
2019-06-07T12:05:14.886Z,2.10
2019-06-07T12:07:41.253Z,1.93
2019-06-07T12:10:10.783Z,2.03
2019-06-07T12:12:39.305Z,2.00
2019-06-07T12:15:08.784Z,2.60
2019-06-07T12:17:37.443Z,2.40
2019-06-07T12:20:08.774Z,2.23
2019-06-07T12:22:37.796Z,2.17
2019-06-07T12:25:07.066Z,2.80
2019-06-07T12:27:35.485Z,2.57
2019-06-07T12:30:11.065Z,2.33
2019-06-07T12:32:38.483Z,2.40
2019-06-07T12:35:07.280Z,2.57
2019-06-07T12:37:43.608Z,2.50
2019-06-07T12:40:07.636Z,2.40
2019-06-07T12:42:36.105Z,2.63
2019-06-07T12:45:07.177Z,2.60
2019-06-07T12:47:36.783Z,2.77
2019-06-07T12:50:09.020Z,2.57
2019-06-07T12:52:43.005Z,2.70
2019-06-07T12:55:13.968Z,2.70
2019-06-07T12:57:42.864Z,2.97
2019-06-07T13:00:16.039Z,2.80
2019-06-07T13:02:44.529Z,2.53
2019-06-07T13:05:15.246Z,2.80
2019-06-07T13:07:45.678Z,2.87
2019-06-07T13:10:15.606Z,2.80
2019-06-07T13:12:44.391Z,2.83
2019-06-07T13:15:16.105Z,3.00
2019-06-07T13:17:42.909Z,2.70
2019-06-07T13:20:11.359Z,3.00
2019-06-07T13:22:40.885Z,2.60
2019-06-07T13:25:14.654Z,3.30
2019-06-07T13:27:44.705Z,3.20
2019-06-07T13:30:16.795Z,2.93
2019-06-07T13:32:46.890Z,3.03
2019-06-07T13:35:16.450Z,3.27
2019-06-07T13:37:50.104Z,3.13
2019-06-07T13:40:21.096Z,3.00
2019-06-07T13:42:50.240Z,3.10
2019-06-07T13:45:22.131Z,2.93
2019-06-07T13:47:51.686Z,3.00
2019-06-07T13:50:21.627Z,3.20
2019-06-07T13:52:50.210Z,2.93
2019-06-07T13:55:21.812Z,2.93
2019-06-07T13:57:51.648Z,3.10
2019-06-07T14:00:23.127Z,2.70
2019-06-07T14:02:51.825Z,2.70
2019-06-07T14:05:20.946Z,2.80
2019-06-07T14:07:49.508Z,3.23
2019-06-07T14:10:19.283Z,2.90
2019-06-07T14:12:47.866Z,2.87
2019-06-07T14:15:17.977Z,2.60
2019-06-07T14:17:46.391Z,3.30
2019-06-07T14:20:15.029Z,3.03
2019-06-07T14:22:43.874Z,3.57
2019-06-07T14:25:13.264Z,3.30
2019-06-07T14:27:41.746Z,3.27
2019-06-07T14:30:11.242Z,3.40
2019-06-07T14:32:40.227Z,3.23
2019-06-07T14:35:08.905Z,3.30
2019-06-07T14:37:39.001Z,3.07
2019-06-07T14:40:08.128Z,3.13
2019-06-07T14:42:36.581Z,3.07
2019-06-07T14:45:07.088Z,2.97
2019-06-07T14:47:35.544Z,3.13
2019-06-07T14:50:06.530Z,3.10
2019-06-07T14:52:35.208Z,3.00
2019-06-07T14:55:05.357Z,3.30
2019-06-07T14:57:35.498Z,3.20
2019-06-07T15:00:11.429Z,3.30
2019-06-07T15:02:40.611Z,3.20
2019-06-07T15:05:09.048Z,3.20
2019-06-07T15:07:40.153Z,3.57
2019-06-07T15:10:08.967Z,3.40
2019-06-07T15:12:37.423Z,3.70
2019-06-07T15:15:07.008Z,3.77
2019-06-07T15:17:35.476Z,3.33
2019-06-07T15:20:06.801Z,3.40
2019-06-07T15:22:36.312Z,3.10
2019-06-07T15:25:09.188Z,3.10
2019-06-07T15:27:38.221Z,3.10
2019-06-07T15:30:11.353Z,3.07
2019-06-07T15:32:42.947Z,3.10
2019-06-07T15:35:11.535Z,3.50
2019-06-07T15:37:41.637Z,3.23
2019-06-07T15:40:10.641Z,3.40
2019-06-07T15:42:51.971Z,3.10
2019-06-07T15:45:12.665Z,3.30
2019-06-07T15:47:43.064Z,3.10
2019-06-07T15:50:11.555Z,3.03
2019-06-07T15:52:43.431Z,3.13
2019-06-07T15:55:11.926Z,3.20
2019-06-07T15:57:41.916Z,3.07
2019-06-07T16:00:16.965Z,3.07
2019-06-07T16:02:46.350Z,2.70
2019-06-07T16:05:14.823Z,2.37
2019-06-07T16:07:45.557Z,2.90
2019-06-07T16:10:15.652Z,2.27
2019-06-07T16:12:59.596Z,116.23
2019-06-07T16:15:17.456Z,82.90
2019-06-07T16:17:46.467Z,28.97
2019-06-07T16:20:14.921Z,19.47
2019-06-07T16:22:45.218Z,47.97
2019-06-07T16:25:14.546Z,29.63
2019-06-07T16:27:44.680Z,29.70
2019-06-07T16:30:18.425Z,18.27
2019-06-07T16:32:49.081Z,7.97
2019-06-07T16:35:20.485Z,3.63
2019-06-07T16:37:52.434Z,2.27
2019-06-07T16:40:22.955Z,2.20
2019-06-07T16:42:53.234Z,1.90
2019-06-07T16:45:23.261Z,2.00
2019-06-07T16:47:56.496Z,1.80
2019-06-07T16:53:04.081Z,1.70
2019-06-07T16:55:34.373Z,1.50
2019-06-07T16:58:04.122Z,1.70
2019-06-07T17:00:35.258Z,1.37
2019-06-07T17:03:05.878Z,1.23
2019-06-07T17:05:37.676Z,1.20
2019-06-07T17:08:09.270Z,1.20
2019-06-07T17:10:40.091Z,1.30
2019-06-07T17:13:08.728Z,1.20
2019-06-07T17:15:40.728Z,1.03
2019-06-07T17:18:09.372Z,1.30
2019-06-07T17:20:38.927Z,1.50
2019-06-07T17:23:08.144Z,2.03
2019-06-07T17:25:41.315Z,1.60
2019-06-07T17:28:13.300Z,1.23
2019-06-07T17:30:43.995Z,1.27
2019-06-07T17:33:17.305Z,1.30
2019-06-07T17:35:48.686Z,1.30
2019-06-07T17:38:17.319Z,1.20
2019-06-07T17:40:46.997Z,1.10
2019-06-07T17:43:17.002Z,1.10
2019-06-07T17:45:47.520Z,1.30
2019-06-07T17:48:16.433Z,0.90
2019-06-07T17:50:46.240Z,1.20
2019-06-07T17:53:18.697Z,1.00
2019-06-07T17:55:50.376Z,0.97
2019-06-07T17:58:20.551Z,0.73
2019-06-07T18:00:53.083Z,1.00
2019-06-07T18:03:23.270Z,1.17
2019-06-07T18:05:51.870Z,0.80
2019-06-07T18:08:20.332Z,0.90
2019-06-07T18:10:50.076Z,0.97
2019-06-07T18:13:18.610Z,1.00
2019-06-07T18:15:53.913Z,0.97
2019-06-07T18:18:20.342Z,1.00
2019-06-07T18:20:51.620Z,0.87
2019-06-07T18:23:23.164Z,0.93
2019-06-07T18:25:52.590Z,0.77
2019-06-07T18:28:22.643Z,0.77
2019-06-07T18:30:54.886Z,0.93
2019-06-07T18:33:23.331Z,0.70
2019-06-07T18:35:53.235Z,0.93
2019-06-07T18:38:23.000Z,0.93
2019-06-07T18:40:53.265Z,0.83
2019-06-07T18:43:24.402Z,0.70
2019-06-07T18:45:53.534Z,0.90
2019-06-07T18:48:22.596Z,0.90
2019-06-07T18:50:52.540Z,1.00
2019-06-07T18:53:23.696Z,0.90
2019-06-07T18:55:58.063Z,0.70
2019-06-07T18:58:28.317Z,1.00
2019-06-07T19:00:57.970Z,1.10
2019-06-07T19:03:29.219Z,0.70
2019-06-07T19:05:58.331Z,0.80
2019-06-07T19:08:27.366Z,0.77
2019-06-07T19:10:56.846Z,0.53
2019-06-07T19:13:25.595Z,0.60
2019-06-07T19:15:55.365Z,0.70
2019-06-07T19:18:23.897Z,0.73
2019-06-07T19:20:52.458Z,0.60
2019-06-07T19:23:20.969Z,0.70
2019-06-07T19:25:50.267Z,0.90
2019-06-07T19:28:21.098Z,0.80
2019-06-07T19:30:51.449Z,0.73
2019-06-07T19:33:20.269Z,1.03
2019-06-07T19:35:51.286Z,0.73
2019-06-07T19:38:22.169Z,0.90
2019-06-07T19:40:53.727Z,0.70
2019-06-07T19:43:24.170Z,0.93
2019-06-07T19:45:58.652Z,0.83
2019-06-07T19:48:30.032Z,0.93
2019-06-07T19:50:59.018Z,0.73
2019-06-07T19:53:28.446Z,0.63
2019-06-07T19:56:01.472Z,0.50
2019-06-07T19:58:29.960Z,1.00
2019-06-07T20:00:59.691Z,0.70
2019-06-07T20:03:28.764Z,0.70
2019-06-07T20:05:58.086Z,0.90
2019-06-07T20:08:26.582Z,0.97
2019-06-07T20:10:55.010Z,0.70
2019-06-07T20:13:25.080Z,0.83
2019-06-07T20:15:54.725Z,0.80
2019-06-07T20:18:23.133Z,0.93
2019-06-07T20:20:53.208Z,0.90
2019-06-07T20:23:22.921Z,0.80
2019-06-07T20:25:51.368Z,0.90
2019-06-07T20:28:21.747Z,0.73
2019-06-07T20:30:52.362Z,0.77
2019-06-07T20:33:22.537Z,0.80
2019-06-07T20:35:50.988Z,0.60
2019-06-07T20:38:19.425Z,0.80
2019-06-07T20:40:49.400Z,0.80
2019-06-07T20:43:18.153Z,0.83
2019-06-07T20:45:47.685Z,0.67
2019-06-07T20:48:17.971Z,0.70
2019-06-07T20:50:48.033Z,0.80
2019-06-07T20:53:17.500Z,0.70
2019-06-07T20:55:46.212Z,1.00
2019-06-07T20:58:16.157Z,0.97
2019-06-07T21:00:46.592Z,1.10
2019-06-07T21:03:18.165Z,0.70
2019-06-07T21:05:50.683Z,0.83
2019-06-07T21:08:19.131Z,0.93
2019-06-07T21:10:48.651Z,1.10
2019-06-07T21:13:18.763Z,0.80
2019-06-07T21:15:49.381Z,1.13
2019-06-07T21:18:20.052Z,0.70
2019-06-07T21:20:48.831Z,0.70
2019-06-07T21:23:17.258Z,0.57
2019-06-07T21:25:51.110Z,0.60
2019-06-07T21:28:20.518Z,0.90
2019-06-07T21:30:50.631Z,0.67
2019-06-07T21:33:19.054Z,0.77
2019-06-07T21:35:51.262Z,0.80
2019-06-07T21:38:21.720Z,0.80
2019-06-07T21:40:51.775Z,0.73
2019-06-07T21:43:22.650Z,0.77
2019-06-07T21:46:04.689Z,0.87
2019-06-07T21:48:26.990Z,0.50
2019-06-07T21:50:55.420Z,1.07
2019-06-07T21:53:27.456Z,0.60
2019-06-07T21:55:58.564Z,0.80
2019-06-07T21:58:27.585Z,0.80
2019-06-07T22:01:04.291Z,0.80
2019-06-07T22:03:35.349Z,0.80
2019-06-07T22:06:07.957Z,0.70
2019-06-07T22:08:37.354Z,0.60
2019-06-07T22:11:08.212Z,0.73
2019-06-07T22:13:38.655Z,0.73
2019-06-07T22:16:23.594Z,0.87
2019-06-07T22:18:44.977Z,0.70
2019-06-07T22:21:15.420Z,0.90
2019-06-07T22:23:46.011Z,0.90
2019-06-07T22:26:18.668Z,0.70
2019-06-07T22:28:55.025Z,0.73
2019-06-07T22:31:26.595Z,0.50
2019-06-07T22:33:55.992Z,0.90
2019-06-07T22:36:27.687Z,0.90
2019-06-07T22:39:04.263Z,0.83
2019-06-07T22:41:34.669Z,0.87
2019-06-07T22:44:03.486Z,0.70
2019-06-07T22:46:37.607Z,0.70
2019-06-07T22:49:07.525Z,0.90
2019-06-07T22:51:37.711Z,0.80
2019-06-07T22:54:09.570Z,0.67
2019-06-07T22:56:48.164Z,0.60
2019-06-07T22:59:20.587Z,0.60
2019-06-07T23:01:51.074Z,0.60
2019-06-07T23:04:21.273Z,0.70
2019-06-07T23:06:51.193Z,0.70
2019-06-07T23:09:20.241Z,0.70
2019-06-07T23:11:50.578Z,0.60
2019-06-07T23:14:19.923Z,0.80
2019-06-07T23:16:55.480Z,0.80
2019-06-07T23:19:22.656Z,0.87
2019-06-07T23:21:51.095Z,0.60
2019-06-07T23:24:20.151Z,0.77
2019-06-07T23:26:50.949Z,0.70
2019-06-07T23:29:20.633Z,0.80
2019-06-07T23:31:49.986Z,0.80
2019-06-07T23:34:20.874Z,0.60
2019-06-07T23:36:54.241Z,1.03
2019-06-07T23:39:22.661Z,0.70
2019-06-07T23:41:54.590Z,0.90
2019-06-07T23:44:23.050Z,0.73
2019-06-07T23:46:53.274Z,0.73
2019-06-07T23:49:24.413Z,0.67
2019-06-07T23:51:53.986Z,1.00
2019-06-07T23:54:24.413Z,0.90
2019-06-07T23:56:52.835Z,0.77
2019-06-07T23:59:22.781Z,1.00
